Strona główna
METAR-TAF:

METAR-TAF

Lotnisko :

Wheaton Municipal Airport

Wheaton, Minnesota, Stany Zjednoczone

Szerokość geograficzna: 45-42N, Długość geograficzna: 096-30W, wysokość: 313 m

Aktualna obserwacja pogody

Raport powstał 18 minut temu, godzina 16:37 UTC
Wiatr 4 kt od zachód
Temperatura 19°C
Wilgotność 73%
Ciśnienie 1013 hPa
Widzialność: 16.1 km
Rozproszone chmury na wysokości 1400 ft

METAR: KETH 161637Z AUTO 26004KT 10SM SCT014 19/14 A2991 RMK AO2

czas: 11:55 (16:55 UTC)


TAF: brakujący

Obserwacja i prognoza pogody dla ponad 4000 lotnisk (raport METAR i TAF).

Dostępne stacje oznaczono żółtymi i czerwonymi punktami na mapie.

Najedź kursorem aby zobaczyć nazwę stacji.

Kliknij aby zobaczyć obserwacje i prognozy pogody.

Aby zmienić mapę: kliknij na zielony przycisk z czarnym krzyżykiem, aby powiększyć; na zielony przycisk z myślnikiem, aby pomniejszyć; na zielone strzałki, aby przejść do map sąsiednich.


METAR-TAF: